Flight Track Log - Related Links

Times and Time Zones

All times are in EDT time to prevent confusion due to time zone crossing. See the SKW5162 flight status page for this flight to view local times or setup timezone preferences in your user account.


Time Position Orientation Groundspeed Altitude Reporting Facility
EDT Latitude Longitude Course Direction KTS MPH feet Rate Location/Type
Sat 08:57:46 PM 29.9817 -95.3556 27° Northeast 176 203 900  Level Houston Center
Sat 08:58:29 PM 30.0128 -95.3519 North 191 220 2,300 1,683 Climbing Houston Center
Sat 08:59:08 PM 30.0458 -95.3344 25° Northeast 204 235 3,200 2,149 Climbing Houston Center
Sat 08:59:36 PM 30.0806 -95.3122 29° Northeast 271 312 4,700 2,754 Climbing Houston Center
Sat 09:00:00 PM 30.3696 -95.1818 23° Northeast  Level FlightAware Approximate
Sat 09:00:09 PM 30.1122 -95.2983 21° North 255 293 6,000  Level Houston Center
Sat 09:01:00 PM 30.4932 -95.1141 27° Northeast  Level FlightAware Approximate
Sat 09:01:10 PM 30.1825 -95.2642 23° Northeast 271 312 8,700  Level Houston Center
Sat 09:02:00 PM 30.6139 -95.0417 27° Northeast  Level FlightAware Approximate
Sat 09:02:11 PM 30.2608 -95.2347 18° North 290 334 10,700  Level Houston Center
Sat 09:03:12 PM 30.3533 -95.2000 18° North 342 394 12,100 1,574 Climbing Houston Center
Sat 09:04:13 PM 30.4561 -95.1589 19° North 375 432 13,900 1,967 Climbing Houston Center
Sat 09:05:14 PM 30.5531 -95.0989 28° Northeast 390 449 16,100 2,164 Climbing Houston Center
Sat 09:06:15 PM 30.6481 -95.0389 29° Northeast 391 450 18,300 1,918 Climbing Houston Center
Sat 09:07:16 PM 30.7464 -94.9786 28° Northeast 396 456 20,000 1,488 Climbing Houston Center
Sat 09:08:16 PM 30.8472 -94.9147 29° Northeast 416 479 21,300 1,537 Climbing Houston Center
Sat 09:09:17 PM 30.9733 -94.8353 28° Northeast 428 493 23,100 1,419 Climbing Houston Center
Sat 09:09:49 PM 31.0153 -94.8103 27° Northeast 410 472 23,500 1,109 Climbing Fort Worth Center
Sat 09:10:49 PM 31.1431 -94.7339 27° Northeast 440 506 24,800 1,200 Climbing Fort Worth Center
Sat 09:11:49 PM 31.2564 -94.6553 31° Northeast 457 526 25,900 1,100 Climbing Fort Worth Center
Sat 09:12:49 PM 31.3694 -94.5764 31° Northeast 462 532 27,000 1,050 Climbing Fort Worth Center
Sat 09:13:49 PM 31.4864 -94.4950 31° Northeast 474 545 28,000 800 Climbing Fort Worth Center
Sat 09:14:49 PM 31.6056 -94.4108 31° Northeast 486 559 28,600 700 Climbing Fort Worth Center
Sat 09:15:49 PM 31.7289 -94.3261 30° Northeast 491 565 29,400 800 Climbing Fort Worth Center
Sat 09:16:49 PM 31.8519 -94.2389 31° Northeast 502 578 30,200 800 Climbing Fort Worth Center
Sat 09:17:49 PM 31.9750 -94.1514 31° Northeast 507 583 31,000 800 Climbing Fort Worth Center
Sat 09:18:49 PM 32.0975 -94.0539 34° Northeast 512 589 31,800 800 Climbing Fort Worth Center
Sat 09:19:49 PM 32.1969 -93.9494 42° Northeast 519 597 32,600 850 Climbing Fort Worth Center
Sat 09:20:49 PM 32.3089 -93.8369 40° Northeast 524 603 33,500 900 Climbing Fort Worth Center
Sat 09:21:49 PM 32.4244 -93.7267 39° Northeast 524 603 34,400 900 Climbing Fort Worth Center
Sat 09:22:49 PM 32.5361 -93.6136 40° Northeast 529 609 35,300 850 Climbing Fort Worth Center
Sat 09:23:49 PM 32.6494 -93.5028 39° Northeast 529 609 36,100 750 Climbing Fort Worth Center
Sat 09:24:49 PM 32.7586 -93.3894 41° Northeast 529 609 36,800 450 Climbing Fort Worth Center
Sat 09:25:49 PM 32.8742 -93.2803 38° Northeast 529 609 37,000 100 Climbing Fort Worth Center
Sat 09:26:49 PM 32.9872 -93.1661 40° Northeast 535 616 37,000  Level Fort Worth Center
Sat 09:27:49 PM 33.1183 -93.0358 40° Northeast 546 628 37,000  Level Fort Worth Center
Sat 09:28:49 PM 33.2331 -92.9186 41° Northeast 546 628 37,000  Level Fort Worth Center
Sat 09:31:08 PM 33.4836 -92.6686 40° Northeast 538 619 37,000  Level Memphis Center
Sat 09:32:08 PM 33.5964 -92.5519 41° Northeast 533 613 37,000  Level Memphis Center
Sat 09:33:08 PM 33.7089 -92.4372 40° Northeast 528 608 37,000  Level Memphis Center
Sat 09:34:08 PM 33.8233 -92.3225 40° Northeast 528 608 37,000  Level Memphis Center
Sat 09:35:08 PM 33.9358 -92.2075 40° Northeast 528 608 37,000  Level Memphis Center
Sat 09:36:08 PM 34.0458 -92.0919 41° Northeast 528 608 37,000  Level Memphis Center
Sat 09:37:08 PM 34.1644 -91.9611 42° Northeast 522 601 37,000  Level Memphis Center
Sat 09:38:08 PM 34.2767 -91.8428 41° Northeast 522 601 37,000  Level Memphis Center
Sat 09:39:08 PM 34.3844 -91.7289 41° Northeast 516 594 37,000  Level Memphis Center
Sat 09:40:08 PM 34.4983 -91.6147 40° Northeast 522 601 37,000  Level Memphis Center
Sat 09:41:08 PM 34.6058 -91.4978 42° Northeast 522 601 37,000  Level Memphis Center
Sat 09:42:08 PM 34.7069 -91.3928 40° Northeast 522 601 37,000  Level Memphis Center
Sat 09:43:08 PM 34.8203 -91.2753 40° Northeast 516 594 37,000  Level Memphis Center
Sat 09:44:08 PM 34.9297 -91.1575 41° Northeast 516 594 37,000  Level Memphis Center
Sat 09:45:08 PM 35.0244 -91.0164 51° Northeast 527 606 37,000  Level Memphis Center
Sat 09:46:08 PM 35.0981 -90.8597 60° Northeast 532 612 37,000  Level Memphis Center
Sat 09:47:08 PM 35.1800 -90.6847 60° Northeast 537 618 37,000  Level Memphis Center
Sat 09:48:08 PM 35.2533 -90.5250 61° Northeast 537 618 37,000  Level Memphis Center
Sat 09:49:08 PM 35.3286 -90.3672 60° Northeast 537 618 37,000  Level Memphis Center
Sat 09:50:08 PM 35.4036 -90.2042 61° Northeast 544 626 37,000  Level Memphis Center
Sat 09:51:08 PM 35.4764 -90.0436 61° Northeast 539 620 37,000  Level Memphis Center
Sat 09:52:08 PM 35.5508 -89.8850 60° Northeast 544 626 37,000  Level Memphis Center
Sat 09:53:08 PM 35.6150 -89.7389 62° Northeast 550 633 37,000  Level Memphis Center
Sat 09:54:08 PM 35.6994 -89.5619 60° Northeast 545 627 37,000  Level Memphis Center
Sat 09:55:08 PM 35.7650 -89.4003 63° Northeast 538 619 37,000  Level Memphis Center
Sat 09:56:08 PM 35.8386 -89.2381 61° Northeast 538 619 37,000  Level Memphis Center
Sat 09:57:08 PM 35.9122 -89.0756 61° Northeast 538 619 37,000  Level Memphis Center
Sat 09:58:08 PM 35.9853 -88.9103 61° Northeast 543 625 37,000  Level Memphis Center
Sat 09:59:08 PM 36.0583 -88.7447 61° Northeast 548 631 37,000  Level Memphis Center
Sat 10:00:08 PM 36.1333 -88.5839 60° Northeast 548 631 37,000  Level Memphis Center
Sat 10:01:08 PM 36.2081 -88.4175 61° Northeast 548 631 37,000  Level Memphis Center
Sat 10:02:08 PM 36.2803 -88.2511 62° Northeast 548 631 37,000  Level Memphis Center
Sat 10:03:08 PM 36.3506 -88.0919 61° Northeast 548 631 37,000  Level Memphis Center
Sat 10:04:08 PM 36.4222 -87.9225 62° Northeast 532 612 37,000  Level Memphis Center
Sat 10:05:08 PM 36.4881 -87.7758 61° Northeast 538 619 37,000  Level Memphis Center
Sat 10:06:08 PM 36.5594 -87.6083 62° Northeast 538 619 37,000  Level Memphis Center
Sat 10:07:08 PM 36.6328 -87.4378 62° Northeast 550 633 37,000  Level Memphis Center
Sat 10:08:08 PM 36.7058 -87.2719 61° Northeast 545 627 37,000  Level Memphis Center
Sat 10:09:08 PM 36.7844 -87.0850 62° Northeast 550 633 37,000  Level Memphis Center
Sat 10:10:08 PM 36.8550 -86.9161 62° Northeast 550 633 37,000  Level Memphis Center
Sat 10:11:08 PM 36.9253 -86.7472 62° Northeast 550 633 37,000  Level Memphis Center
Sat 10:13:25 PM 37.0778 -86.3753 63° Northeast 555 639 37,000  Level Indianapolis Center
Sat 10:14:26 PM 37.1497 -86.2025 62° Northeast 554 638 37,000  Level Indianapolis Center
Sat 10:15:27 PM 37.2203 -86.0278 63° Northeast 555 639 37,000  Level Indianapolis Center
Sat 10:16:27 PM 37.2967 -85.8433 62° Northeast 552 635 37,000  Level Indianapolis Center
Sat 10:17:28 PM 37.3594 -85.6867 63° Northeast 552 635 37,000  Level Indianapolis Center
Sat 10:18:28 PM 37.4367 -85.4975 63° Northeast 554 638 37,000  Level Indianapolis Center
Sat 10:19:29 PM 37.5061 -85.3264 63° Northeast 551 634 37,000  Level Indianapolis Center
Sat 10:20:30 PM 37.5747 -85.1528 63° Northeast 552 635 37,000  Level Indianapolis Center
Sat 10:21:30 PM 37.6419 -84.9792 64° Northeast 551 634 37,000  Level Indianapolis Center
Sat 10:22:31 PM 37.7114 -84.8042 63° Northeast 554 638 37,000  Level Indianapolis Center
Sat 10:23:31 PM 37.7789 -84.6300 64° Northeast 552 635 37,000  Level Indianapolis Center
Sat 10:24:32 PM 37.8472 -84.4561 63° Northeast 550 633 37,000  Level Indianapolis Center
Sat 10:25:33 PM 37.9231 -84.2867 60° Northeast 553 636 37,000  Level Indianapolis Center
Sat 10:26:33 PM 38.0197 -84.1358 51° Northeast 543 625 37,000  Level Indianapolis Center
Sat 10:27:34 PM 38.1172 -83.9828 51° Northeast 551 634 37,000  Level Indianapolis Center
Sat 10:28:34 PM 38.2136 -83.8283 52° Northeast 554 638 37,000  Level Indianapolis Center
Sat 10:29:35 PM 38.3089 -83.6769 51° Northeast 547 629 37,000  Level Indianapolis Center
Sat 10:30:36 PM 38.4031 -83.5250 52° Northeast 545 627 37,000  Level Indianapolis Center
Sat 10:31:36 PM 38.4997 -83.3708 51° Northeast 550 633 37,000  Level Indianapolis Center
Sat 10:32:37 PM 38.5936 -83.2167 52° Northeast 548 631 37,000  Level Indianapolis Center
Sat 10:33:37 PM 38.6817 -83.0731 52° Northeast 551 634 37,000  Level Indianapolis Center
Sat 10:34:38 PM 38.7953 -82.8892 52° Northeast 549 632 37,000  Level Indianapolis Center
Sat 10:35:38 PM 38.8878 -82.7342 52° Northeast 546 628 37,000  Level Indianapolis Center
Sat 10:36:39 PM 38.9819 -82.5792 52° Northeast 547 629 37,000 -934 Level Indianapolis Center
Sat 10:37:40 PM 39.0775 -82.4219 52° Northeast 554 638 35,100 -1,488 Descending Indianapolis Center
Sat 10:38:40 PM 39.1703 -82.2678 52° Northeast 545 627 34,000 -545 Descending Indianapolis Center
Sat 10:39:41 PM 39.2603 -82.1178 52° Northeast 530 610 34,000  Level Indianapolis Center
Sat 10:40:41 PM 39.3481 -81.9708 52° Northeast 517 595 34,000 -1,041 Level Indianapolis Center
Sat 10:41:42 PM 39.4342 -81.8256 52° Northeast 508 585 31,900 -2,459 Descending Indianapolis Center
Sat 10:42:43 PM 39.5181 -81.6808 53° Northeast 501 577 29,000 -2,876 Descending Indianapolis Center
Sat 10:43:43 PM 39.5992 -81.5414 53° Northeast 487 560 26,100 -2,649 Descending Indianapolis Center
Sat 10:44:34 PM 39.6594 -81.4433 51° Northeast 493 567 24,100 -2,649 Descending Cleveland Center
Sat 10:45:34 PM 39.7356 -81.3092 54° Northeast 472 543 21,200 -2,900 Descending Cleveland Center
Sat 10:46:34 PM 39.8092 -81.1831 53° Northeast 454 522 18,300 -2,950 Descending Cleveland Center
Sat 10:47:34 PM 39.8806 -81.0564 54° Northeast 442 509 15,300 -2,950 Descending Cleveland Center
Sat 10:48:34 PM 39.9497 -80.9378 53° Northeast 423 487 12,400 -2,600 Descending Cleveland Center
Sat 10:49:34 PM 40.0147 -80.8244 53° Northeast 407 468 10,100 -1,200 Descending Cleveland Center
Sat 10:50:34 PM 40.0858 -80.7161 49° Northeast 396 456 10,000 -50 Descending Cleveland Center
Sat 10:51:34 PM 40.1525 -80.6047 52° Northeast 390 449 10,000 -200 Level Cleveland Center
Sat 10:52:34 PM 40.2194 -80.5150 46° Northeast 366 421 9,600 -1,600 Descending Cleveland Center
Sat 10:53:34 PM 40.2964 -80.5122 North 285 328 6,800 -2,300 Descending Cleveland Center
Sat 10:54:34 PM 40.3714 -80.5122 360° North 264 304 5,000 -1,400 Descending Cleveland Center
Sat 10:55:34 PM 40.4403 -80.5150 358° North 254 292 4,000 -600 Descending Cleveland Center
Sat 10:56:34 PM 40.5028 -80.5011 10° North 237 273 3,800 -250 Descending Cleveland Center
Sat 10:57:34 PM 40.5069 -80.4219 86° East 170 196 3,500 -300 Descending Cleveland Center

Login

Don't have an account? Register now (free) for customized features, flight alerts, and more!